createdAt,value
2019-05-17T00:01:07.334Z,47.17
2019-05-17T00:03:36.898Z,45.47
2019-05-17T00:06:06.937Z,56.47
2019-05-17T00:08:38.279Z,52.93
2019-05-17T00:11:07.342Z,48.50
2019-05-17T00:13:38.764Z,54.30
2019-05-17T00:16:07.821Z,58.53
2019-05-17T00:18:37.211Z,43.93
2019-05-17T00:21:07.703Z,109.67
2019-05-17T00:23:37.623Z,85.67
2019-05-17T00:26:07.322Z,68.17
2019-05-17T00:28:37.516Z,48.00
2019-05-17T00:33:38.530Z,59.87
2019-05-17T00:36:07.831Z,42.47
2019-05-17T00:38:48.007Z,61.17
2019-05-17T00:41:08.231Z,46.17
2019-05-17T00:43:37.583Z,49.47
2019-05-17T00:46:06.921Z,39.47
2019-05-17T00:48:37.317Z,39.97
2019-05-17T00:51:09.946Z,37.07
2019-05-17T00:53:37.920Z,43.33
2019-05-17T00:56:07.224Z,31.33
2019-05-17T00:58:37.034Z,34.50
2019-05-17T01:01:08.249Z,30.70
2019-05-17T01:03:37.783Z,42.13
2019-05-17T01:06:07.202Z,39.20
2019-05-17T01:08:37.259Z,46.07
2019-05-17T01:11:07.256Z,37.37
2019-05-17T01:13:37.515Z,32.33
2019-05-17T01:16:07.465Z,32.97
2019-05-17T01:18:37.025Z,28.73
2019-05-17T01:21:07.578Z,23.97
2019-05-17T01:23:36.951Z,26.93
2019-05-17T01:26:07.552Z,37.60
2019-05-17T01:28:37.156Z,25.70
2019-05-17T01:31:06.831Z,30.07
2019-05-17T01:33:36.929Z,24.97
2019-05-17T01:36:06.938Z,24.93
2019-05-17T01:38:37.662Z,23.13
2019-05-17T01:41:07.381Z,22.47
2019-05-17T01:43:36.952Z,23.57
2019-05-17T01:46:06.806Z,20.33
2019-05-17T01:48:36.648Z,20.77
2019-05-17T01:51:07.538Z,23.17
2019-05-17T01:53:37.035Z,26.87
2019-05-17T01:56:06.559Z,22.30
2019-05-17T01:58:36.484Z,23.70
2019-05-17T02:01:07.618Z,23.53
2019-05-17T02:03:37.589Z,24.70
2019-05-17T02:06:07.766Z,20.43
2019-05-17T02:08:37.435Z,27.83
2019-05-17T02:11:06.968Z,26.57
2019-05-17T02:13:37.587Z,26.23
2019-05-17T02:16:07.443Z,25.57
2019-05-17T02:18:37.362Z,25.43
2019-05-17T02:21:06.800Z,23.70
2019-05-17T02:23:37.238Z,24.80
2019-05-17T02:26:07.975Z,27.33
2019-05-17T02:28:37.373Z,27.03
2019-05-17T02:31:06.601Z,26.53
2019-05-17T02:33:36.036Z,28.13
2019-05-17T02:36:05.457Z,27.13
2019-05-17T02:38:34.801Z,28.80
2019-05-17T02:41:04.226Z,30.60
2019-05-17T02:43:33.821Z,31.83
2019-05-17T02:46:04.113Z,37.47
2019-05-17T02:48:34.176Z,32.70
2019-05-17T02:51:04.086Z,27.20
2019-05-17T02:53:33.846Z,29.13
2019-05-17T02:56:03.656Z,33.70
2019-05-17T02:58:33.347Z,32.13
2019-05-17T03:01:03.847Z,30.20
2019-05-17T03:03:33.845Z,33.33
2019-05-17T03:06:06.510Z,33.97
2019-05-17T03:08:38.397Z,35.53
2019-05-17T03:11:13.459Z,34.73
2019-05-17T03:14:04.041Z,36.53
2019-05-17T03:16:35.031Z,38.97
2019-05-17T03:19:13.126Z,41.37
2019-05-17T03:21:42.869Z,39.87
2019-05-17T03:24:13.598Z,38.00
2019-05-17T03:26:43.342Z,34.13
2019-05-17T03:29:23.199Z,39.93
2019-05-17T03:31:59.925Z,45.70
2019-05-17T03:34:27.523Z,48.90
2019-05-17T03:36:57.248Z,40.63
2019-05-17T03:39:33.133Z,46.53
2019-05-17T03:42:02.653Z,40.40
2019-05-17T03:44:36.757Z,44.63
2019-05-17T03:47:12.898Z,42.17
2019-05-17T03:49:43.908Z,43.40
2019-05-17T03:52:13.729Z,43.93
2019-05-17T03:54:52.809Z,43.63
2019-05-17T03:57:23.901Z,39.20
2019-05-17T03:59:54.733Z,43.23
2019-05-17T04:02:26.414Z,45.27
2019-05-17T04:04:56.682Z,41.37
2019-05-17T04:07:28.404Z,45.80
2019-05-17T04:09:57.791Z,49.20
2019-05-17T04:12:27.487Z,45.43
2019-05-17T04:14:57.428Z,46.37
2019-05-17T04:17:32.546Z,43.03
2019-05-17T04:20:03.396Z,44.93
2019-05-17T04:22:33.081Z,43.80
2019-05-17T04:25:03.360Z,47.37
2019-05-17T04:27:32.946Z,46.37
2019-05-17T04:30:03.655Z,42.67
2019-05-17T04:32:33.994Z,41.83
2019-05-17T04:35:05.918Z,41.40
2019-05-17T04:37:38.455Z,46.60
2019-05-17T04:40:06.868Z,44.93
2019-05-17T04:42:36.590Z,35.73
2019-05-17T04:45:07.675Z,47.13
2019-05-17T04:47:43.705Z,47.67
2019-05-17T04:50:13.620Z,45.10
2019-05-17T04:52:46.638Z,49.67
2019-05-17T04:55:17.797Z,51.57
2019-05-17T04:57:52.669Z,47.03
2019-05-17T05:00:21.947Z,47.40
2019-05-17T05:02:52.694Z,48.30
2019-05-17T05:05:25.529Z,44.27
2019-05-17T05:07:54.999Z,46.70
2019-05-17T05:10:26.666Z,40.60
2019-05-17T05:12:57.378Z,41.20
2019-05-17T05:15:47.241Z,43.00
2019-05-17T05:18:21.904Z,39.20
2019-05-17T05:20:52.685Z,35.23
2019-05-17T05:23:24.953Z,40.97
2019-05-17T05:25:55.354Z,39.93
2019-05-17T05:28:28.027Z,33.90
2019-05-17T05:31:01.909Z,35.77
2019-05-17T05:33:33.049Z,37.20
2019-05-17T05:36:02.895Z,33.33
2019-05-17T05:38:32.800Z,32.00
2019-05-17T05:41:07.187Z,28.13
2019-05-17T05:43:36.494Z,32.17
2019-05-17T05:46:08.544Z,28.13
2019-05-17T05:48:38.496Z,27.23
2019-05-17T05:51:07.904Z,27.43
2019-05-17T05:53:42.099Z,28.40
2019-05-17T05:56:14.620Z,26.63
2019-05-17T05:58:45.059Z,30.47
2019-05-17T06:01:14.471Z,22.90
2019-05-17T06:03:44.449Z,24.63
2019-05-17T06:06:15.614Z,27.80
2019-05-17T06:08:47.681Z,27.03
2019-05-17T06:11:21.484Z,24.07
2019-05-17T06:13:52.216Z,22.93
2019-05-17T06:16:23.444Z,25.17
2019-05-17T06:19:14.620Z,24.43
2019-05-17T06:21:44.010Z,22.73
2019-05-17T06:24:13.364Z,24.80
2019-05-17T06:26:42.671Z,22.70
2019-05-17T06:29:12.085Z,23.93
2019-05-17T06:31:43.370Z,23.70
2019-05-17T06:34:12.673Z,23.03
2019-05-17T06:36:43.619Z,22.53
2019-05-17T06:39:12.936Z,22.40
2019-05-17T06:41:42.263Z,25.27
2019-05-17T06:44:12.264Z,22.63
2019-05-17T06:46:42.025Z,23.10
2019-05-17T06:49:11.887Z,24.00
2019-05-17T06:51:42.650Z,22.93
2019-05-17T06:54:12.434Z,22.93
2019-05-17T06:56:45.016Z,27.63
2019-05-17T06:59:14.354Z,22.10
2019-05-17T07:01:43.766Z,22.27
2019-05-17T07:04:13.197Z,19.37
2019-05-17T07:06:42.664Z,19.30
2019-05-17T07:09:11.999Z,20.87
2019-05-17T07:11:41.340Z,20.13
2019-05-17T07:14:10.682Z,20.70
2019-05-17T07:16:40.027Z,20.63
2019-05-17T07:19:10.381Z,19.83
2019-05-17T07:21:40.437Z,20.50
2019-05-17T07:24:10.190Z,20.73
2019-05-17T07:26:39.628Z,19.47
2019-05-17T07:29:10.018Z,16.70
2019-05-17T07:31:40.414Z,17.70
2019-05-17T07:34:10.226Z,17.30
2019-05-17T07:36:39.893Z,17.33
2019-05-17T07:39:10.854Z,17.60
2019-05-17T07:41:40.393Z,18.63
2019-05-17T07:44:10.065Z,19.43
2019-05-17T07:46:40.217Z,18.07
2019-05-17T07:49:10.783Z,17.77
2019-05-17T07:51:40.619Z,17.73
2019-05-17T07:54:10.458Z,13.93
2019-05-17T07:56:40.304Z,15.83
2019-05-17T07:59:09.813Z,15.17
2019-05-17T08:01:41.242Z,15.83
2019-05-17T08:04:12.268Z,16.53
2019-05-17T08:06:41.347Z,16.27
2019-05-17T08:09:13.878Z,15.17
2019-05-17T08:11:41.834Z,17.20
2019-05-17T08:14:11.230Z,17.20
2019-05-17T08:16:40.550Z,15.70
2019-05-17T08:19:09.985Z,17.03
2019-05-17T08:21:39.854Z,17.50
2019-05-17T08:24:10.434Z,16.63
2019-05-17T08:26:40.472Z,16.83
2019-05-17T08:29:10.184Z,18.83
2019-05-17T08:31:40.448Z,18.13
2019-05-17T08:34:10.452Z,13.67
2019-05-17T08:36:40.580Z,16.20
2019-05-17T08:39:10.412Z,16.90
2019-05-17T08:41:40.583Z,18.13
2019-05-17T08:44:10.357Z,16.77
2019-05-17T08:46:41.264Z,17.87
2019-05-17T08:49:10.665Z,17.63
2019-05-17T08:51:40.100Z,17.60
2019-05-17T08:54:10.299Z,16.23
2019-05-17T08:56:40.374Z,14.60
2019-05-17T08:59:10.101Z,16.97
2019-05-17T09:01:41.909Z,16.80
2019-05-17T09:04:10.669Z,16.50
2019-05-17T09:06:40.067Z,17.13
2019-05-17T09:09:09.972Z,16.03
2019-05-17T09:11:39.748Z,17.33
2019-05-17T09:14:10.458Z,14.20
2019-05-17T09:16:40.313Z,15.20
2019-05-17T09:19:11.857Z,13.00
2019-05-17T09:21:43.118Z,15.33
2019-05-17T09:24:12.276Z,12.53
2019-05-17T09:26:41.677Z,13.40
2019-05-17T09:29:11.023Z,13.08
2019-05-17T09:31:40.586Z,10.00
2019-05-17T09:34:10.071Z,12.20
2019-05-17T09:36:40.820Z,14.23
2019-05-17T09:39:10.584Z,12.05
2019-05-17T09:41:40.059Z,12.78
2019-05-17T09:44:15.696Z,11.35
2019-05-17T09:46:40.585Z,12.18
2019-05-17T09:49:10.589Z,10.03
2019-05-17T09:51:39.979Z,8.53
2019-05-17T09:54:10.283Z,9.33
2019-05-17T09:56:39.794Z,11.20
2019-05-17T09:59:09.944Z,11.50
2019-05-17T10:01:39.671Z,11.15
2019-05-17T10:04:12.982Z,11.40
2019-05-17T10:06:40.232Z,10.88
2019-05-17T10:09:09.678Z,10.90
2019-05-17T10:11:39.952Z,11.30
2019-05-17T10:14:11.586Z,11.15
2019-05-17T10:16:40.950Z,11.97
2019-05-17T10:19:10.300Z,11.88
2019-05-17T10:21:40.006Z,11.73
2019-05-17T10:24:09.714Z,8.93
2019-05-17T10:26:39.249Z,9.70
2019-05-17T10:29:10.046Z,10.73
2019-05-17T10:31:39.843Z,9.60
2019-05-17T10:34:09.757Z,9.10
2019-05-17T10:36:40.098Z,9.17
2019-05-17T10:39:09.973Z,8.40
2019-05-17T10:41:40.668Z,9.17
2019-05-17T10:44:10.146Z,9.23
2019-05-17T10:46:40.661Z,9.03
2019-05-17T10:49:10.820Z,10.27
2019-05-17T10:51:40.490Z,9.37
2019-05-17T10:54:10.587Z,9.10
2019-05-17T10:56:40.246Z,9.77
2019-05-17T10:59:09.947Z,11.40
2019-05-17T11:01:39.575Z,9.27
2019-05-17T11:04:10.474Z,8.70
2019-05-17T11:06:40.000Z,8.17
2019-05-17T11:09:10.303Z,8.77
2019-05-17T11:11:39.983Z,7.87
2019-05-17T11:14:09.309Z,8.30
2019-05-17T11:16:38.681Z,9.00
2019-05-17T11:19:08.829Z,9.27
2019-05-17T11:21:38.331Z,8.43
2019-05-17T11:24:07.653Z,7.03
2019-05-17T11:26:37.114Z,9.00
2019-05-17T11:29:06.661Z,8.50
2019-05-17T11:31:36.088Z,8.13
2019-05-17T11:34:05.587Z,8.37
2019-05-17T11:36:35.436Z,8.13
2019-05-17T11:39:06.804Z,8.67
2019-05-17T11:41:36.265Z,8.50
2019-05-17T11:44:05.690Z,7.13
2019-05-17T11:46:36.495Z,9.10
2019-05-17T11:49:06.111Z,10.20
2019-05-17T11:51:35.559Z,11.80
2019-05-17T11:54:05.074Z,11.17
2019-05-17T11:56:34.517Z,8.60
2019-05-17T11:59:05.399Z,10.00
2019-05-17T12:01:34.884Z,8.60
2019-05-17T12:04:05.774Z,11.70
2019-05-17T12:06:35.226Z,10.83
2019-05-17T12:09:05.571Z,13.13
2019-05-17T12:11:34.902Z,10.73
2019-05-17T12:14:04.446Z,11.47
2019-05-17T12:16:33.810Z,9.53
2019-05-17T12:19:03.278Z,10.03
2019-05-17T12:21:32.703Z,9.03
2019-05-17T12:24:02.132Z,10.27
2019-05-17T12:26:31.616Z,10.63
2019-05-17T12:29:01.006Z,10.70
2019-05-17T12:31:30.395Z,11.50
2019-05-17T12:33:59.773Z,11.80
2019-05-17T12:36:29.237Z,11.23
2019-05-17T12:38:59.869Z,11.10
2019-05-17T12:41:29.339Z,6.70
2019-05-17T12:43:58.704Z,8.60
2019-05-17T12:46:28.051Z,8.43
2019-05-17T12:48:57.421Z,8.87
2019-05-17T12:51:27.412Z,8.65
2019-05-17T12:53:56.822Z,8.90
2019-05-17T12:56:26.208Z,8.90
2019-05-17T12:58:55.566Z,8.73
2019-05-17T13:01:24.871Z,9.47
2019-05-17T13:03:54.321Z,9.27
2019-05-17T13:06:23.647Z,8.90
2019-05-17T13:08:53.080Z,9.13
2019-05-17T13:11:22.441Z,8.10
2019-05-17T13:13:51.764Z,9.33
2019-05-17T13:16:21.177Z,10.37
2019-05-17T13:18:50.466Z,8.73
2019-05-17T13:21:19.779Z,8.30
2019-05-17T13:23:49.226Z,9.83
2019-05-17T13:26:18.609Z,9.50
2019-05-17T13:28:47.981Z,9.40
2019-05-17T13:31:17.432Z,8.87
2019-05-17T13:33:46.812Z,8.40
2019-05-17T13:36:16.119Z,8.57
2019-05-17T13:38:45.468Z,10.57
2019-05-17T13:41:14.890Z,9.70
2019-05-17T13:43:44.326Z,10.00
2019-05-17T13:46:13.868Z,9.67
2019-05-17T13:48:43.273Z,9.10
2019-05-17T13:51:12.601Z,9.40
2019-05-17T13:53:42.001Z,9.27
2019-05-17T13:56:11.468Z,8.73
2019-05-17T13:58:40.817Z,9.17
2019-05-17T14:01:10.374Z,9.63
2019-05-17T14:03:39.743Z,10.63
2019-05-17T14:06:09.155Z,9.47
2019-05-17T14:08:38.573Z,9.13
2019-05-17T14:11:07.950Z,9.27
2019-05-17T14:13:37.267Z,11.00
2019-05-17T14:16:06.628Z,10.20
2019-05-17T14:18:36.043Z,8.50
2019-05-17T14:21:05.736Z,8.00
2019-05-17T14:23:35.397Z,8.07
2019-05-17T14:26:04.852Z,8.50
2019-05-17T14:28:34.279Z,7.57
2019-05-17T14:31:05.824Z,9.90
2019-05-17T14:33:35.525Z,7.60
2019-05-17T14:36:04.955Z,8.07
2019-05-17T14:38:34.565Z,8.00
2019-05-17T14:41:07.453Z,7.73
2019-05-17T14:43:35.004Z,7.80
2019-05-17T14:46:04.438Z,7.27
2019-05-17T14:48:34.099Z,7.20
2019-05-17T14:51:03.526Z,7.27
2019-05-17T14:53:32.927Z,7.03
2019-05-17T14:56:02.426Z,7.37
2019-05-17T14:58:32.449Z,7.50
2019-05-17T15:01:02.143Z,6.70
2019-05-17T15:03:32.121Z,7.03
2019-05-17T15:06:01.595Z,7.13
2019-05-17T15:08:31.257Z,8.07
2019-05-17T15:11:00.600Z,7.40
2019-05-17T15:13:29.926Z,7.33
2019-05-17T15:15:59.431Z,7.33
2019-05-17T15:18:28.790Z,6.47
2019-05-17T15:20:58.370Z,7.03
2019-05-17T15:23:28.179Z,7.43
2019-05-17T15:25:57.595Z,7.83
2019-05-17T15:28:26.876Z,7.83
2019-05-17T15:30:56.239Z,7.40
2019-05-17T15:33:25.582Z,7.10
2019-05-17T15:35:55.036Z,7.30
2019-05-17T15:38:24.335Z,7.20
2019-05-17T15:40:53.806Z,7.70
2019-05-17T15:43:23.420Z,7.93
2019-05-17T15:45:52.882Z,7.93
2019-05-17T15:48:22.319Z,9.53
2019-05-17T15:50:51.736Z,16.80
2019-05-17T15:53:21.126Z,9.23
2019-05-17T15:55:51.711Z,9.40
2019-05-17T15:58:21.148Z,8.03
2019-05-17T16:00:51.003Z,8.53
2019-05-17T16:03:20.347Z,7.43
2019-05-17T16:05:49.786Z,8.63
2019-05-17T16:08:19.143Z,8.07
2019-05-17T16:10:48.602Z,8.33
2019-05-17T16:13:18.046Z,8.50
2019-05-17T16:15:47.400Z,8.87
2019-05-17T16:18:16.768Z,8.20
2019-05-17T16:20:47.732Z,8.17
2019-05-17T16:23:17.831Z,7.87
2019-05-17T16:25:48.791Z,7.60
2019-05-17T16:28:20.506Z,10.03
2019-05-17T16:30:50.624Z,9.23
2019-05-17T16:33:21.521Z,9.40
2019-05-17T16:35:51.350Z,8.80
2019-05-17T16:38:20.694Z,18.30
2019-05-17T16:40:50.216Z,20.93
2019-05-17T16:43:19.622Z,9.73
2019-05-17T16:45:49.114Z,8.73
2019-05-17T16:48:18.534Z,8.53
2019-05-17T16:50:49.967Z,8.53
2019-05-17T16:53:19.689Z,8.90
2019-05-17T16:55:49.043Z,10.13
2019-05-17T16:58:18.490Z,8.93
2019-05-17T17:00:48.719Z,9.70
2019-05-17T17:03:21.870Z,9.50
2019-05-17T17:05:52.562Z,8.07
2019-05-17T17:08:21.963Z,9.43
2019-05-17T17:10:51.352Z,9.07
2019-05-17T17:13:32.446Z,9.07
2019-05-17T17:15:51.843Z,9.43
2019-05-17T17:18:21.207Z,8.30
2019-05-17T17:20:50.730Z,8.20
2019-05-17T17:23:20.248Z,8.30
2019-05-17T17:25:52.538Z,8.43
2019-05-17T17:28:25.383Z,9.00
2019-05-17T17:30:53.905Z,8.87
2019-05-17T17:33:28.773Z,9.43
2019-05-17T17:35:58.430Z,8.47
2019-05-17T17:38:27.846Z,9.50
2019-05-17T17:40:57.202Z,9.10
2019-05-17T17:43:26.527Z,8.97
2019-05-17T17:45:56.099Z,8.80
2019-05-17T17:48:25.437Z,9.07
2019-05-17T17:50:54.869Z,8.67
2019-05-17T17:53:24.337Z,8.83
2019-05-17T17:55:53.781Z,9.93
2019-05-17T17:58:23.155Z,9.70
2019-05-17T18:00:52.617Z,9.33
2019-05-17T18:03:22.113Z,10.40
2019-05-17T18:05:51.674Z,8.73
2019-05-17T18:08:21.112Z,9.63
2019-05-17T18:10:50.743Z,9.30
2019-05-17T18:13:20.133Z,9.27
2019-05-17T18:15:50.476Z,9.00
2019-05-17T18:18:20.049Z,9.23
2019-05-17T18:20:49.479Z,10.00
2019-05-17T18:23:22.968Z,9.80
2019-05-17T18:25:50.038Z,10.10
2019-05-17T18:28:19.417Z,12.90
2019-05-17T18:30:48.718Z,12.23
2019-05-17T18:33:18.593Z,11.83
2019-05-17T18:35:48.028Z,11.20
2019-05-17T18:38:20.154Z,10.53
2019-05-17T18:40:50.383Z,10.33
2019-05-17T18:43:19.854Z,9.90
2019-05-17T18:45:49.243Z,10.73
2019-05-17T18:48:18.720Z,10.33
2019-05-17T18:50:48.141Z,11.10
2019-05-17T18:53:17.585Z,11.47
2019-05-17T18:55:47.028Z,17.27
2019-05-17T18:58:16.574Z,19.40
2019-05-17T19:00:46.966Z,13.83
2019-05-17T19:03:16.416Z,12.30
2019-05-17T19:05:45.945Z,11.50
2019-05-17T19:08:15.387Z,11.47
2019-05-17T19:10:44.799Z,11.47
2019-05-17T19:13:14.248Z,11.37
2019-05-17T19:15:43.855Z,10.27
2019-05-17T19:18:13.551Z,11.90
2019-05-17T19:20:43.439Z,12.93
2019-05-17T19:23:14.357Z,12.43
2019-05-17T19:25:43.993Z,12.13
2019-05-17T19:28:14.960Z,10.70
2019-05-17T19:30:44.885Z,10.50
2019-05-17T19:33:14.228Z,11.63
2019-05-17T19:35:43.873Z,10.63
2019-05-17T19:38:13.554Z,10.47
2019-05-17T19:40:43.042Z,12.03
2019-05-17T19:43:12.496Z,10.63
2019-05-17T19:45:48.497Z,13.83
2019-05-17T19:48:19.896Z,13.43
2019-05-17T19:50:49.738Z,12.70
2019-05-17T19:53:20.819Z,12.03
2019-05-17T19:55:52.311Z,13.33
2019-05-17T19:58:42.823Z,23.83
2019-05-17T20:01:12.212Z,75.60
2019-05-17T20:03:41.788Z,22.10
2019-05-17T20:06:11.323Z,16.33
2019-05-17T20:08:41.162Z,14.03
2019-05-17T20:11:10.975Z,13.90
2019-05-17T20:13:40.579Z,13.83
2019-05-17T20:16:09.925Z,15.20
2019-05-17T20:18:39.444Z,13.77
2019-05-17T20:21:11.043Z,13.67
2019-05-17T20:23:43.542Z,13.33
2019-05-17T20:26:11.772Z,14.40
2019-05-17T20:28:41.101Z,15.20
2019-05-17T20:31:10.415Z,16.20
2019-05-17T20:33:40.963Z,15.17
2019-05-17T20:36:13.222Z,13.73
2019-05-17T20:38:42.585Z,13.50
2019-05-17T20:41:12.025Z,14.07
2019-05-17T20:43:42.586Z,13.93
2019-05-17T20:46:12.389Z,14.00
2019-05-17T20:48:42.072Z,18.40
2019-05-17T20:51:13.170Z,19.60
2019-05-17T20:53:42.709Z,17.07
2019-05-17T20:56:12.041Z,18.40
2019-05-17T20:58:41.647Z,19.33
2019-05-17T21:01:10.958Z,17.90
2019-05-17T21:03:40.391Z,21.03
2019-05-17T21:06:09.745Z,21.90
2019-05-17T21:08:46.102Z,22.53
2019-05-17T21:11:11.753Z,20.10
2019-05-17T21:13:41.119Z,20.90
2019-05-17T21:16:10.634Z,18.63
2019-05-17T21:18:39.930Z,20.20
2019-05-17T21:21:09.331Z,22.07
2019-05-17T21:23:38.796Z,22.83
2019-05-17T21:26:08.123Z,22.70
2019-05-17T21:28:37.436Z,19.23
2019-05-17T21:31:08.162Z,20.80
2019-05-17T21:33:39.186Z,21.47
2019-05-17T21:36:08.595Z,23.00
2019-05-17T21:38:38.092Z,23.83
2019-05-17T21:41:07.434Z,29.33
2019-05-17T21:43:36.814Z,30.10
2019-05-17T21:46:06.283Z,25.87
2019-05-17T21:48:38.744Z,28.10
2019-05-17T21:51:08.164Z,27.60
2019-05-17T21:53:37.589Z,28.27
2019-05-17T21:56:07.014Z,27.57
2019-05-17T21:58:36.348Z,25.90
2019-05-17T22:01:24.785Z,25.97
2019-05-17T22:03:54.376Z,23.33
2019-05-17T22:06:25.491Z,23.87
2019-05-17T22:08:54.891Z,22.80
2019-05-17T22:11:24.381Z,23.67
2019-05-17T22:13:53.776Z,23.53
2019-05-17T22:16:23.147Z,21.87
2019-05-17T22:18:52.547Z,21.13
2019-05-17T22:21:21.898Z,21.73
2019-05-17T22:23:51.344Z,23.30
2019-05-17T22:26:20.755Z,19.80
2019-05-17T22:28:50.109Z,21.13
2019-05-17T22:31:19.391Z,21.57
2019-05-17T22:33:48.889Z,21.17
2019-05-17T22:36:18.203Z,21.40
2019-05-17T22:38:47.616Z,20.70
2019-05-17T22:41:16.949Z,19.33
2019-05-17T22:43:46.338Z,19.33
2019-05-17T22:46:15.726Z,17.53
2019-05-17T22:48:45.148Z,20.00
2019-05-17T22:51:14.520Z,17.57
2019-05-17T22:53:43.928Z,17.83
2019-05-17T22:56:13.358Z,17.73
2019-05-17T22:58:42.668Z,17.40
2019-05-17T23:01:12.031Z,16.70
2019-05-17T23:03:41.338Z,17.40
2019-05-17T23:06:10.780Z,16.97
2019-05-17T23:08:40.057Z,17.10
2019-05-17T23:11:09.458Z,17.90
2019-05-17T23:13:38.771Z,15.60
2019-05-17T23:16:10.683Z,17.77
2019-05-17T23:18:40.003Z,18.57
2019-05-17T23:21:09.424Z,17.63
2019-05-17T23:23:38.817Z,18.80
2019-05-17T23:26:08.212Z,19.60
2019-05-17T23:28:37.586Z,19.90
2019-05-17T23:31:07.093Z,21.03
2019-05-17T23:33:36.480Z,20.83
2019-05-17T23:36:05.830Z,21.30
2019-05-17T23:38:35.119Z,20.00
2019-05-17T23:41:04.487Z,21.63
2019-05-17T23:43:33.808Z,21.23
2019-05-17T23:46:03.175Z,20.37
2019-05-17T23:48:32.541Z,20.63
2019-05-17T23:51:01.854Z,21.27
2019-05-17T23:53:31.284Z,20.03
2019-05-17T23:56:00.605Z,19.70
2019-05-17T23:58:29.951Z,21.47
